sensor_id;sensor_type;location;lat;lon;timestamp;pressure;altitude;pressure_sealevel;temperature;humidity
68193;BME280;55012;47.562;18.414;2023-08-07T00:00:13;99978.16;;;14.17;100.00
68193;BME280;55012;47.562;18.414;2023-08-07T00:02:38;99979.75;;;14.18;100.00
68193;BME280;55012;47.562;18.414;2023-08-07T00:05:05;99972.28;;;14.15;100.00
68193;BME280;55012;47.562;18.414;2023-08-07T00:07:31;99979.31;;;14.16;100.00
68193;BME280;55012;47.562;18.414;2023-08-07T00:09:56;99985.19;;;14.18;100.00
68193;BME280;55012;47.562;18.414;2023-08-07T00:12:22;99961.50;;;14.19;100.00
68193;BME280;55012;47.562;18.414;2023-08-07T00:14:50;99967.72;;;14.19;100.00
68193;BME280;55012;47.562;18.414;2023-08-07T00:17:16;99974.38;;;14.22;100.00
68193;BME280;55012;47.562;18.414;2023-08-07T00:19:42;99940.94;;;14.21;100.00
68193;BME280;55012;47.562;18.414;2023-08-07T00:22:07;99942.97;;;14.24;100.00
68193;BME280;55012;47.562;18.414;2023-08-07T00:24:33;99944.91;;;14.24;100.00
68193;BME280;55012;47.562;18.414;2023-08-07T00:26:58;99922.00;;;14.25;100.00
68193;BME280;55012;47.562;18.414;2023-08-07T00:29:24;99947.72;;;14.27;100.00
68193;BME280;55012;47.562;18.414;2023-08-07T00:31:50;99941.91;;;14.29;100.00
68193;BME280;55012;47.562;18.414;2023-08-07T00:34:15;99939.91;;;14.26;100.00
68193;BME280;55012;47.562;18.414;2023-08-07T00:36:41;99938.31;;;14.25;100.00
68193;BME280;55012;47.562;18.414;2023-08-07T00:39:06;99927.88;;;14.27;100.00
68193;BME280;55012;47.562;18.414;2023-08-07T00:41:33;99927.44;;;14.25;100.00
68193;BME280;55012;47.562;18.414;2023-08-07T00:43:58;99926.97;;;14.23;100.00
68193;BME280;55012;47.562;18.414;2023-08-07T00:46:24;99926.97;;;14.23;100.00
68193;BME280;55012;47.562;18.414;2023-08-07T00:48:51;99923.47;;;14.22;100.00
68193;BME280;55012;47.562;18.414;2023-08-07T00:51:18;99909.88;;;14.22;100.00
68193;BME280;55012;47.562;18.414;2023-08-07T00:53:43;99917.69;;;14.24;100.00
68193;BME280;55012;47.562;18.414;2023-08-07T00:56:09;99920.41;;;14.24;100.00
68193;BME280;55012;47.562;18.414;2023-08-07T00:58:34;99913.72;;;14.21;100.00
68193;BME280;55012;47.562;18.414;2023-08-07T01:01:01;99915.41;;;14.26;100.00
68193;BME280;55012;47.562;18.414;2023-08-07T01:03:27;99919.69;;;14.27;100.00
68193;BME280;55012;47.562;18.414;2023-08-07T01:05:52;99902.59;;;14.26;100.00
68193;BME280;55012;47.562;18.414;2023-08-07T01:08:18;99895.22;;;14.27;100.00
68193;BME280;55012;47.562;18.414;2023-08-07T01:16:48;99880.03;;;14.26;100.00
68193;BME280;55012;47.562;18.414;2023-08-07T01:19:27;99891.28;;;14.24;100.00
68193;BME280;55012;47.562;18.414;2023-08-07T01:22:09;99871.50;;;14.27;100.00
68193;BME280;55012;47.562;18.414;2023-08-07T01:24:36;99882.03;;;14.29;100.00
68193;BME280;55012;47.562;18.414;2023-08-07T01:27:28;99851.31;;;14.28;100.00
68193;BME280;55012;47.562;18.414;2023-08-07T01:33:00;99841.72;;;14.34;100.00
68193;BME280;55012;47.562;18.414;2023-08-07T01:35:34;99837.44;;;14.33;100.00
68193;BME280;55012;47.562;18.414;2023-08-07T01:38:01;99816.81;;;14.32;100.00
68193;BME280;55012;47.562;18.414;2023-08-07T01:40:28;99828.84;;;14.31;100.00
68193;BME280;55012;47.562;18.414;2023-08-07T01:42:54;99822.25;;;14.32;100.00
68193;BME280;55012;47.562;18.414;2023-08-07T01:45:24;99803.53;;;14.31;100.00
68193;BME280;55012;47.562;18.414;2023-08-07T01:47:49;99785.31;;;14.31;100.00
68193;BME280;55012;47.562;18.414;2023-08-07T01:50:15;99808.56;;;14.29;100.00
68193;BME280;55012;47.562;18.414;2023-08-07T01:52:40;99818.66;;;14.28;100.00
68193;BME280;55012;47.562;18.414;2023-08-07T01:55:06;99812.41;;;14.28;100.00
68193;BME280;55012;47.562;18.414;2023-08-07T01:57:31;99786.34;;;14.27;100.00
68193;BME280;55012;47.562;18.414;2023-08-07T01:59:57;99794.44;;;14.23;100.00
68193;BME280;55012;47.562;18.414;2023-08-07T02:02:22;99802.53;;;14.20;100.00
68193;BME280;55012;47.562;18.414;2023-08-07T02:04:48;99801.38;;;14.21;100.00
68193;BME280;55012;47.562;18.414;2023-08-07T02:07:14;99798.94;;;14.16;100.00
68193;BME280;55012;47.562;18.414;2023-08-07T02:09:39;99795.78;;;14.14;100.00
68193;BME280;55012;47.562;18.414;2023-08-07T02:12:05;99797.22;;;14.08;100.00
68193;BME280;55012;47.562;18.414;2023-08-07T02:14:31;99792.88;;;14.06;100.00
68193;BME280;55012;47.562;18.414;2023-08-07T02:16:56;99795.97;;;14.05;100.00
68193;BME280;55012;47.562;18.414;2023-08-07T02:19:21;99825.47;;;14.03;100.00
68193;BME280;55012;47.562;18.414;2023-08-07T02:21:47;99795.91;;;14.01;100.00
68193;BME280;55012;47.562;18.414;2023-08-07T02:24:12;99800.38;;;13.94;100.00
68193;BME280;55012;47.562;18.414;2023-08-07T02:26:39;99803.03;;;13.90;100.00
68193;BME280;55012;47.562;18.414;2023-08-07T02:29:04;99801.00;;;13.87;100.00
68193;BME280;55012;47.562;18.414;2023-08-07T02:31:31;99809.88;;;13.84;100.00
68193;BME280;55012;47.562;18.414;2023-08-07T02:33:57;99812.84;;;13.79;100.00
68193;BME280;55012;47.562;18.414;2023-08-07T02:36:22;99806.97;;;13.77;100.00
68193;BME280;55012;47.562;18.414;2023-08-07T02:38:48;99808.38;;;13.71;100.00
68193;BME280;55012;47.562;18.414;2023-08-07T02:41:13;99810.31;;;13.70;100.00
68193;BME280;55012;47.562;18.414;2023-08-07T02:43:39;99820.31;;;13.66;100.00
68193;BME280;55012;47.562;18.414;2023-08-07T02:46:04;99845.47;;;13.63;100.00
68193;BME280;55012;47.562;18.414;2023-08-07T02:48:29;99830.22;;;13.59;100.00
68193;BME280;55012;47.562;18.414;2023-08-07T02:50:55;99845.75;;;13.58;100.00
68193;BME280;55012;47.562;18.414;2023-08-07T02:53:20;99845.75;;;13.58;100.00
68193;BME280;55012;47.562;18.414;2023-08-07T02:55:46;99852.31;;;13.57;100.00
68193;BME280;55012;47.562;18.414;2023-08-07T02:58:11;99846.06;;;13.57;100.00
68193;BME280;55012;47.562;18.414;2023-08-07T03:00:37;99853.00;;;13.54;100.00
68193;BME280;55012;47.562;18.414;2023-08-07T03:03:02;99861.53;;;13.53;100.00
68193;BME280;55012;47.562;18.414;2023-08-07T03:05:29;99866.16;;;13.52;100.00
68193;BME280;55012;47.562;18.414;2023-08-07T03:07:54;99867.66;;;13.49;100.00
68193;BME280;55012;47.562;18.414;2023-08-07T03:10:19;99863.00;;;13.50;100.00
68193;BME280;55012;47.562;18.414;2023-08-07T03:12:45;99860.28;;;13.50;100.00
68193;BME280;55012;47.562;18.414;2023-08-07T03:15:11;99871.50;;;13.48;100.00
68193;BME280;55012;47.562;18.414;2023-08-07T03:17:37;99859.50;;;13.49;100.00
68193;BME280;55012;47.562;18.414;2023-08-07T03:20:03;99869.59;;;13.49;100.00
68193;BME280;55012;47.562;18.414;2023-08-07T03:22:29;99858.25;;;13.47;100.00
68193;BME280;55012;47.562;18.414;2023-08-07T03:24:54;99872.91;;;13.42;100.00
68193;BME280;55012;47.562;18.414;2023-08-07T03:27:20;99848.09;;;13.44;100.00
68193;BME280;55012;47.562;18.414;2023-08-07T03:29:46;99847.31;;;13.43;100.00
68193;BME280;55012;47.562;18.414;2023-08-07T03:32:11;99861.31;;;13.45;100.00
68193;BME280;55012;47.562;18.414;2023-08-07T03:34:37;99839.94;;;13.44;100.00
68193;BME280;55012;47.562;18.414;2023-08-07T03:37:03;99853.53;;;13.44;100.00
68193;BME280;55012;47.562;18.414;2023-08-07T03:39:28;99846.53;;;13.43;100.00
68193;BME280;55012;47.562;18.414;2023-08-07T03:41:54;99853.09;;;13.42;100.00
68193;BME280;55012;47.562;18.414;2023-08-07T03:44:19;99843.81;;;13.43;100.00
68193;BME280;55012;47.562;18.414;2023-08-07T03:46:47;99834.59;;;13.47;100.00
68193;BME280;55012;47.562;18.414;2023-08-07T03:49:13;99853.72;;;13.51;100.00
68193;BME280;55012;47.562;18.414;2023-08-07T03:51:39;99842.91;;;13.55;100.00
68193;BME280;55012;47.562;18.414;2023-08-07T03:54:05;99843.34;;;13.57;100.00
68193;BME280;55012;47.562;18.414;2023-08-07T03:56:31;99820.13;;;13.59;100.00
68193;BME280;55012;47.562;18.414;2023-08-07T03:59:03;99833.03;;;13.62;100.00
68193;BME280;55012;47.562;18.414;2023-08-07T04:01:28;99822.16;;;13.62;100.00
68193;BME280;55012;47.562;18.414;2023-08-07T04:03:53;99809.78;;;13.65;100.00
68193;BME280;55012;47.562;18.414;2023-08-07T04:06:19;99824.63;;;13.67;100.00
68193;BME280;55012;47.562;18.414;2023-08-07T04:08:46;99821.97;;;13.71;100.00
68193;BME280;55012;47.562;18.414;2023-08-07T04:11:12;99811.97;;;13.75;100.00
68193;BME280;55012;47.562;18.414;2023-08-07T04:13:37;99793.13;;;13.82;100.00
68193;BME280;55012;47.562;18.414;2023-08-07T04:16:03;99787.03;;;13.89;100.00
68193;BME280;55012;47.562;18.414;2023-08-07T04:18:30;99791.06;;;13.95;100.00
68193;BME280;55012;47.562;18.414;2023-08-07T04:20:56;99787.44;;;14.06;100.00
68193;BME280;55012;47.562;18.414;2023-08-07T04:23:22;99815.53;;;14.11;100.00
68193;BME280;55012;47.562;18.414;2023-08-07T04:25:48;99774.72;;;14.11;100.00
68193;BME280;55012;47.562;18.414;2023-08-07T04:28:13;99776.28;;;14.12;100.00
68193;BME280;55012;47.562;18.414;2023-08-07T04:30:39;99763.06;;;14.10;100.00
68193;BME280;55012;47.562;18.414;2023-08-07T04:33:05;99759.97;;;14.12;100.00
68193;BME280;55012;47.562;18.414;2023-08-07T04:35:30;99757.34;;;14.15;100.00
68193;BME280;55012;47.562;18.414;2023-08-07T04:37:56;99754.31;;;14.20;100.00
68193;BME280;55012;47.562;18.414;2023-08-07T04:40:22;99760.97;;;14.23;100.00
68193;BME280;55012;47.562;18.414;2023-08-07T04:42:49;99771.00;;;14.19;100.00
68193;BME280;55012;47.562;18.414;2023-08-07T04:45:14;99748.47;;;14.38;100.00
68193;BME280;55012;47.562;18.414;2023-08-07T04:47:40;99768.22;;;14.50;100.00
68193;BME280;55012;47.562;18.414;2023-08-07T04:50:06;99748.56;;;14.41;100.00
68193;BME280;55012;47.562;18.414;2023-08-07T04:52:32;99751.03;;;14.30;100.00
68193;BME280;55012;47.562;18.414;2023-08-07T04:54:57;99752.47;;;14.24;100.00
68193;BME280;55012;47.562;18.414;2023-08-07T04:57:23;99758.13;;;14.16;100.00
68193;BME280;55012;47.562;18.414;2023-08-07T04:59:48;99735.84;;;14.10;100.00
68193;BME280;55012;47.562;18.414;2023-08-07T05:02:14;99754.38;;;14.04;100.00
68193;BME280;55012;47.562;18.414;2023-08-07T05:04:39;99746.56;;;14.03;100.00
68193;BME280;55012;47.562;18.414;2023-08-07T05:07:05;99751.66;;;14.04;100.00
68193;BME280;55012;47.562;18.414;2023-08-07T05:09:31;99762.25;;;14.10;100.00
68193;BME280;55012;47.562;18.414;2023-08-07T05:11:56;99763.47;;;14.12;100.00
68193;BME280;55012;47.562;18.414;2023-08-07T05:14:21;99774.69;;;14.26;100.00
68193;BME280;55012;47.562;18.414;2023-08-07T05:16:47;99781.28;;;14.25;100.00
68193;BME280;55012;47.562;18.414;2023-08-07T05:19:13;99762.91;;;14.22;100.00
68193;BME280;55012;47.562;18.414;2023-08-07T05:21:38;99771.59;;;14.28;100.00
68193;BME280;55012;47.562;18.414;2023-08-07T05:24:04;99772.53;;;14.36;100.00
68193;BME280;55012;47.562;18.414;2023-08-07T05:26:30;99774.06;;;14.33;100.00
68193;BME280;55012;47.562;18.414;2023-08-07T05:28:56;99768.44;;;14.26;100.00
68193;BME280;55012;47.562;18.414;2023-08-07T05:31:23;99777.56;;;14.33;100.00
68193;BME280;55012;47.562;18.414;2023-08-07T05:33:49;99784.84;;;14.29;100.00
68193;BME280;55012;47.562;18.414;2023-08-07T05:36:14;99773.75;;;14.19;100.00
68193;BME280;55012;47.562;18.414;2023-08-07T05:38:40;99739.00;;;14.12;100.00
68193;BME280;55012;47.562;18.414;2023-08-07T05:41:05;99767.34;;;14.11;100.00
68193;BME280;55012;47.562;18.414;2023-08-07T05:43:31;99761.47;;;14.09;100.00
68193;BME280;55012;47.562;18.414;2023-08-07T05:45:57;99763.41;;;14.09;100.00
68193;BME280;55012;47.562;18.414;2023-08-07T05:48:22;99776.25;;;14.27;100.00
68193;BME280;55012;47.562;18.414;2023-08-07T05:50:48;99792.16;;;14.45;100.00
68193;BME280;55012;47.562;18.414;2023-08-07T05:53:13;99768.81;;;14.44;100.00
68193;BME280;55012;47.562;18.414;2023-08-07T05:55:39;99775.25;;;14.36;100.00
68193;BME280;55012;47.562;18.414;2023-08-07T05:58:06;99767.81;;;14.32;100.00
68193;BME280;55012;47.562;18.414;2023-08-07T06:00:32;99769.44;;;14.37;100.00
68193;BME280;55012;47.562;18.414;2023-08-07T06:02:57;99751.88;;;14.50;100.00
68193;BME280;55012;47.562;18.414;2023-08-07T06:05:23;99737.03;;;14.67;100.00
68193;BME280;55012;47.562;18.414;2023-08-07T06:07:49;99746.63;;;14.80;100.00
68193;BME280;55012;47.562;18.414;2023-08-07T06:10:15;99726.53;;;14.88;100.00
68193;BME280;55012;47.562;18.414;2023-08-07T06:12:40;99734.91;;;14.99;100.00
68193;BME280;55012;47.562;18.414;2023-08-07T06:15:06;99705.41;;;15.05;100.00
68193;BME280;55012;47.562;18.414;2023-08-07T06:17:32;99727.19;;;15.24;100.00
68193;BME280;55012;47.562;18.414;2023-08-07T06:19:57;99705.75;;;15.23;100.00
68193;BME280;55012;47.562;18.414;2023-08-07T06:22:23;99715.28;;;15.36;100.00
68193;BME280;55012;47.562;18.414;2023-08-07T06:24:48;99692.31;;;15.37;100.00
68193;BME280;55012;47.562;18.414;2023-08-07T06:27:14;99690.22;;;15.27;100.00
68193;BME280;55012;47.562;18.414;2023-08-07T06:29:40;99670.31;;;15.23;100.00
68193;BME280;55012;47.562;18.414;2023-08-07T06:32:05;99668.91;;;15.32;100.00
68193;BME280;55012;47.562;18.414;2023-08-07T06:34:31;99682.72;;;15.46;100.00
68193;BME280;55012;47.562;18.414;2023-08-07T06:36:57;99688.63;;;15.49;100.00
68193;BME280;55012;47.562;18.414;2023-08-07T06:39:22;99662.84;;;15.46;100.00
68193;BME280;55012;47.562;18.414;2023-08-07T06:41:47;99679.81;;;15.59;100.00
68193;BME280;55012;47.562;18.414;2023-08-07T06:44:13;99694.22;;;15.59;100.00
68193;BME280;55012;47.562;18.414;2023-08-07T06:46:38;99676.56;;;15.50;100.00
68193;BME280;55012;47.562;18.414;2023-08-07T06:49:04;99641.16;;;15.53;100.00
68193;BME280;55012;47.562;18.414;2023-08-07T06:51:29;99637.53;;;15.72;100.00
68193;BME280;55012;47.562;18.414;2023-08-07T06:53:55;99645.09;;;15.82;100.00
68193;BME280;55012;47.562;18.414;2023-08-07T06:56:21;99639.31;;;15.87;100.00
68193;BME280;55012;47.562;18.414;2023-08-07T06:58:46;99629.16;;;15.84;100.00
68193;BME280;55012;47.562;18.414;2023-08-07T07:01:12;99625.56;;;15.80;100.00
68193;BME280;55012;47.562;18.414;2023-08-07T07:03:37;99606.91;;;15.82;100.00
68193;BME280;55012;47.562;18.414;2023-08-07T07:06:03;99625.94;;;15.79;100.00
68193;BME280;55012;47.562;18.414;2023-08-07T07:08:28;99613.19;;;15.86;100.00
68193;BME280;55012;47.562;18.414;2023-08-07T07:10:53;99632.84;;;15.99;100.00
68193;BME280;55012;47.562;18.414;2023-08-07T07:13:19;99596.59;;;15.98;100.00
68193;BME280;55012;47.562;18.414;2023-08-07T07:15:44;99611.75;;;15.96;100.00
68193;BME280;55012;47.562;18.414;2023-08-07T07:18:10;99613.59;;;15.88;100.00
68193;BME280;55012;47.562;18.414;2023-08-07T07:20:35;99628.81;;;15.89;100.00
68193;BME280;55012;47.562;18.414;2023-08-07T07:23:01;99613.47;;;15.78;100.00
68193;BME280;55012;47.562;18.414;2023-08-07T07:25:26;99621.66;;;15.78;100.00
68193;BME280;55012;47.562;18.414;2023-08-07T07:27:52;99648.09;;;15.73;100.00
68193;BME280;55012;47.562;18.414;2023-08-07T07:30:17;99639.41;;;15.64;100.00
68193;BME280;55012;47.562;18.414;2023-08-07T07:32:43;99660.91;;;15.69;100.00
68193;BME280;55012;47.562;18.414;2023-08-07T07:35:08;99644.50;;;15.66;100.00
68193;BME280;55012;47.562;18.414;2023-08-07T07:37:34;99634.78;;;15.68;100.00
68193;BME280;55012;47.562;18.414;2023-08-07T07:39:59;99676.84;;;15.67;100.00
68193;BME280;55012;47.562;18.414;2023-08-07T07:42:25;99649.94;;;15.66;100.00
68193;BME280;55012;47.562;18.414;2023-08-07T07:44:50;99660.19;;;15.72;100.00
68193;BME280;55012;47.562;18.414;2023-08-07T07:47:17;99632.47;;;15.70;100.00
68193;BME280;55012;47.562;18.414;2023-08-07T07:49:46;99639.13;;;15.73;100.00
68193;BME280;55012;47.562;18.414;2023-08-07T07:52:15;99632.97;;;15.80;100.00
68193;BME280;55012;47.562;18.414;2023-08-07T07:54:40;99650.13;;;15.80;100.00
68193;BME280;55012;47.562;18.414;2023-08-07T07:57:06;99658.38;;;15.84;100.00
68193;BME280;55012;47.562;18.414;2023-08-07T07:59:31;99645.22;;;15.93;100.00
68193;BME280;55012;47.562;18.414;2023-08-07T08:01:57;99669.53;;;16.05;100.00
68193;BME280;55012;47.562;18.414;2023-08-07T08:04:22;99684.41;;;16.08;100.00
68193;BME280;55012;47.562;18.414;2023-08-07T08:06:48;99655.13;;;16.05;100.00
68193;BME280;55012;47.562;18.414;2023-08-07T08:09:13;99683.16;;;16.01;100.00
68193;BME280;55012;47.562;18.414;2023-08-07T08:11:39;99671.84;;;15.99;100.00
68193;BME280;55012;47.562;18.414;2023-08-07T08:14:04;99678.88;;;16.04;100.00
68193;BME280;55012;47.562;18.414;2023-08-07T08:16:30;99629.75;;;16.00;100.00
68193;BME280;55012;47.562;18.414;2023-08-07T08:18:55;99548.97;;;15.96;100.00
68193;BME280;55012;47.562;18.414;2023-08-07T08:21:21;99603.94;;;15.94;100.00
68193;BME280;55012;47.562;18.414;2023-08-07T08:23:46;99636.00;;;16.05;100.00
68193;BME280;55012;47.562;18.414;2023-08-07T08:26:11;99591.16;;;16.02;100.00
68193;BME280;55012;47.562;18.414;2023-08-07T08:28:38;99538.78;;;16.26;100.00
68193;BME280;55012;47.562;18.414;2023-08-07T08:31:03;99578.97;;;16.29;100.00
68193;BME280;55012;47.562;18.414;2023-08-07T08:33:31;99608.66;;;16.31;100.00
68193;BME280;55012;47.562;18.414;2023-08-07T08:35:56;99576.91;;;16.19;100.00
68193;BME280;55012;47.562;18.414;2023-08-07T08:38:22;99600.75;;;16.22;100.00
68193;BME280;55012;47.562;18.414;2023-08-07T08:40:51;99596.50;;;16.28;100.00
68193;BME280;55012;47.562;18.414;2023-08-07T08:43:17;99560.63;;;16.26;100.00
68193;BME280;55012;47.562;18.414;2023-08-07T08:45:43;99586.25;;;16.15;100.00
68193;BME280;55012;47.562;18.414;2023-08-07T08:48:12;99592.69;;;16.33;100.00
68193;BME280;55012;47.562;18.414;2023-08-07T08:50:42;99681.63;;;16.38;100.00
68193;BME280;55012;47.562;18.414;2023-08-07T08:53:08;99635.09;;;16.23;100.00
68193;BME280;55012;47.562;18.414;2023-08-07T08:55:35;99655.75;;;16.24;100.00
68193;BME280;55012;47.562;18.414;2023-08-07T08:58:01;99705.00;;;16.32;100.00
68193;BME280;55012;47.562;18.414;2023-08-07T09:00:28;99749.56;;;16.39;100.00
68193;BME280;55012;47.562;18.414;2023-08-07T09:02:55;99762.75;;;16.37;100.00
68193;BME280;55012;47.562;18.414;2023-08-07T09:05:21;99797.84;;;16.35;100.00
68193;BME280;55012;47.562;18.414;2023-08-07T09:07:47;99808.31;;;16.29;100.00
68193;BME280;55012;47.562;18.414;2023-08-07T09:10:14;99710.22;;;16.14;100.00
68193;BME280;55012;47.562;18.414;2023-08-07T09:12:43;99780.38;;;16.13;100.00
68193;BME280;55012;47.562;18.414;2023-08-07T09:15:11;99818.66;;;16.17;100.00
68193;BME280;55012;47.562;18.414;2023-08-07T09:17:42;99796.47;;;15.92;100.00
68193;BME280;55012;47.562;18.414;2023-08-07T09:20:08;99748.91;;;15.93;100.00
68193;BME280;55012;47.562;18.414;2023-08-07T09:22:38;99755.75;;;16.06;100.00
68193;BME280;55012;47.562;18.414;2023-08-07T09:25:03;99759.28;;;16.10;100.00
68193;BME280;55012;47.562;18.414;2023-08-07T09:27:30;99759.00;;;16.15;100.00
68193;BME280;55012;47.562;18.414;2023-08-07T09:29:57;99735.38;;;16.30;100.00
68193;BME280;55012;47.562;18.414;2023-08-07T09:32:23;99749.47;;;16.32;100.00
68193;BME280;55012;47.562;18.414;2023-08-07T09:34:50;99739.41;;;16.40;100.00
68193;BME280;55012;47.562;18.414;2023-08-07T09:37:16;99787.00;;;16.39;100.00
68193;BME280;55012;47.562;18.414;2023-08-07T09:39:42;99734.25;;;16.31;100.00
68193;BME280;55012;47.562;18.414;2023-08-07T09:42:16;99727.47;;;16.21;100.00
68193;BME280;55012;47.562;18.414;2023-08-07T09:44:42;99770.88;;;16.30;100.00
68193;BME280;55012;47.562;18.414;2023-08-07T09:47:12;99804.09;;;16.66;100.00
68193;BME280;55012;47.562;18.414;2023-08-07T09:49:39;99747.06;;;16.61;100.00
68193;BME280;55012;47.562;18.414;2023-08-07T09:52:09;99805.44;;;16.75;100.00
68193;BME280;55012;47.562;18.414;2023-08-07T09:54:35;99752.03;;;16.51;100.00
68193;BME280;55012;47.562;18.414;2023-08-07T09:57:02;99817.34;;;16.34;100.00
68193;BME280;55012;47.562;18.414;2023-08-07T09:59:27;99867.06;;;15.97;100.00
68193;BME280;55012;47.562;18.414;2023-08-07T10:01:54;99930.50;;;15.67;100.00
68193;BME280;55012;47.562;18.414;2023-08-07T10:04:23;99841.03;;;15.77;100.00
68193;BME280;55012;47.562;18.414;2023-08-07T10:06:49;99860.38;;;15.91;100.00
68193;BME280;55012;47.562;18.414;2023-08-07T10:09:14;99881.28;;;15.83;100.00
68193;BME280;55012;47.562;18.414;2023-08-07T10:11:41;99884.44;;;15.43;100.00
68193;BME280;55012;47.562;18.414;2023-08-07T10:14:08;99969.66;;;15.21;100.00
68193;BME280;55012;47.562;18.414;2023-08-07T10:16:34;99892.50;;;15.16;100.00
68193;BME280;55012;47.562;18.414;2023-08-07T10:19:08;99907.44;;;15.23;100.00
68193;BME280;55012;47.562;18.414;2023-08-07T10:21:44;99883.81;;;15.11;100.00
68193;BME280;55012;47.562;18.414;2023-08-07T10:24:11;99883.41;;;14.89;100.00
68193;BME280;55012;47.562;18.414;2023-08-07T10:26:43;99892.63;;;14.85;100.00
68193;BME280;55012;47.562;18.414;2023-08-07T10:29:13;99904.38;;;14.89;100.00
68193;BME280;55012;47.562;18.414;2023-08-07T10:31:40;99835.16;;;14.90;100.00
68193;BME280;55012;47.562;18.414;2023-08-07T10:34:08;99810.34;;;14.76;100.00
68193;BME280;55012;47.562;18.414;2023-08-07T10:36:34;99850.53;;;14.63;100.00
68193;BME280;55012;47.562;18.414;2023-08-07T10:39:07;99928.63;;;14.75;100.00
68193;BME280;55012;47.562;18.414;2023-08-07T10:41:42;99914.81;;;15.03;100.00
68193;BME280;55012;47.562;18.414;2023-08-07T10:44:29;99923.19;;;15.13;100.00
68193;BME280;55012;47.562;18.414;2023-08-07T10:46:57;99987.38;;;15.11;100.00
68193;BME280;55012;47.562;18.414;2023-08-07T10:49:41;99926.91;;;14.86;100.00
68193;BME280;55012;47.562;18.414;2023-08-07T10:52:12;99867.19;;;14.77;100.00
68193;BME280;55012;47.562;18.414;2023-08-07T10:54:44;99878.59;;;14.83;100.00
68193;BME280;55012;47.562;18.414;2023-08-07T10:57:11;99822.38;;;14.94;100.00
68193;BME280;55012;47.562;18.414;2023-08-07T10:59:38;99935.88;;;14.86;100.00
68193;BME280;55012;47.562;18.414;2023-08-07T11:02:07;99942.69;;;14.61;100.00
68193;BME280;55012;47.562;18.414;2023-08-07T11:04:36;99922.44;;;14.11;100.00
68193;BME280;55012;47.562;18.414;2023-08-07T11:07:02;99946.88;;;13.80;100.00
68193;BME280;55012;47.562;18.414;2023-08-07T11:09:27;99971.72;;;13.78;100.00
68193;BME280;55012;47.562;18.414;2023-08-07T11:11:52;99988.31;;;13.89;100.00
68193;BME280;55012;47.562;18.414;2023-08-07T11:14:19;99963.63;;;13.82;100.00
68193;BME280;55012;47.562;18.414;2023-08-07T11:16:47;99919.72;;;14.11;100.00
68193;BME280;55012;47.562;18.414;2023-08-07T11:19:17;99869.81;;;14.54;100.00
68193;BME280;55012;47.562;18.414;2023-08-07T11:21:43;99794.16;;;14.83;100.00
68193;BME280;55012;47.562;18.414;2023-08-07T11:24:12;99779.78;;;15.05;100.00
68193;BME280;55012;47.562;18.414;2023-08-07T11:26:38;99877.31;;;15.15;100.00
68193;BME280;55012;47.562;18.414;2023-08-07T11:29:04;99835.75;;;15.22;100.00
68193;BME280;55012;47.562;18.414;2023-08-07T11:31:29;99827.53;;;15.18;100.00
68193;BME280;55012;47.562;18.414;2023-08-07T11:33:57;99809.50;;;15.33;100.00
68193;BME280;55012;47.562;18.414;2023-08-07T11:36:23;99773.16;;;15.49;100.00
68193;BME280;55012;47.562;18.414;2023-08-07T11:38:49;99812.81;;;15.46;100.00
68193;BME280;55012;47.562;18.414;2023-08-07T11:41:16;99717.28;;;15.62;100.00
68193;BME280;55012;47.562;18.414;2023-08-07T11:43:42;99843.06;;;15.60;100.00
68193;BME280;55012;47.562;18.414;2023-08-07T11:46:10;99746.31;;;15.51;100.00
68193;BME280;55012;47.562;18.414;2023-08-07T11:48:38;99700.00;;;15.54;100.00
68193;BME280;55012;47.562;18.414;2023-08-07T11:51:04;99804.84;;;15.34;100.00
68193;BME280;55012;47.562;18.414;2023-08-07T11:53:32;99758.00;;;15.28;100.00
68193;BME280;55012;47.562;18.414;2023-08-07T11:55:59;99841.56;;;15.40;100.00
68193;BME280;55012;47.562;18.414;2023-08-07T11:58:33;99839.16;;;15.38;100.00
68193;BME280;55012;47.562;18.414;2023-08-07T12:00:59;99777.94;;;15.32;100.00
68193;BME280;55012;47.562;18.414;2023-08-07T12:03:29;99842.03;;;15.03;100.00
68193;BME280;55012;47.562;18.414;2023-08-07T12:05:57;99899.53;;;15.17;100.00
68193;BME280;55012;47.562;18.414;2023-08-07T12:08:23;99790.66;;;15.25;100.00
68193;BME280;55012;47.562;18.414;2023-08-07T12:10:50;99848.31;;;15.27;100.00
68193;BME280;55012;47.562;18.414;2023-08-07T12:13:15;99800.16;;;15.34;100.00
68193;BME280;55012;47.562;18.414;2023-08-07T12:15:41;99873.47;;;15.39;100.00
68193;BME280;55012;47.562;18.414;2023-08-07T12:18:08;99798.97;;;15.32;100.00
68193;BME280;55012;47.562;18.414;2023-08-07T12:20:33;99859.56;;;15.06;100.00
68193;BME280;55012;47.562;18.414;2023-08-07T12:22:58;99798.13;;;15.08;100.00
68193;BME280;55012;47.562;18.414;2023-08-07T12:25:24;99796.63;;;15.11;100.00
68193;BME280;55012;47.562;18.414;2023-08-07T12:27:49;99791.19;;;15.34;100.00
68193;BME280;55012;47.562;18.414;2023-08-07T12:30:15;99882.31;;;15.33;100.00
68193;BME280;55012;47.562;18.414;2023-08-07T12:32:41;99892.56;;;15.20;100.00
68193;BME280;55012;47.562;18.414;2023-08-07T12:35:06;99789.09;;;15.04;100.00
68193;BME280;55012;47.562;18.414;2023-08-07T12:37:35;99873.88;;;14.99;100.00
68193;BME280;55012;47.562;18.414;2023-08-07T12:40:00;99878.38;;;15.11;100.00
68193;BME280;55012;47.562;18.414;2023-08-07T12:42:26;99779.72;;;15.02;100.00
68193;BME280;55012;47.562;18.414;2023-08-07T12:44:51;99882.09;;;15.03;100.00